createdAt,value
2022-11-18T00:00:35.217Z,-0.93
2022-11-18T00:04:37.087Z,-0.92
2022-11-18T00:08:38.739Z,-0.91
2022-11-18T00:12:59.031Z,-1.00
2022-11-18T00:17:04.167Z,-0.95
2022-11-18T00:21:09.040Z,-1.02
2022-11-18T00:25:10.656Z,-0.96
2022-11-18T00:29:13.133Z,-1.01
2022-11-18T00:33:14.769Z,-0.98
2022-11-18T00:37:16.660Z,-0.95
2022-11-18T00:41:18.260Z,-1.00
2022-11-18T00:45:21.017Z,-1.11
2022-11-18T00:49:23.272Z,-0.93
2022-11-18T00:53:27.087Z,-0.93
2022-11-18T00:57:28.793Z,-0.90
2022-11-18T01:01:30.752Z,-0.91
2022-11-18T01:05:32.358Z,-0.95
2022-11-18T01:09:34.309Z,-0.86
2022-11-18T01:13:35.922Z,-0.85
2022-11-18T01:17:37.878Z,-0.91
2022-11-18T01:21:39.578Z,-0.96
2022-11-18T01:25:43.692Z,-0.91
2022-11-18T01:29:45.295Z,-0.82
2022-11-18T01:33:47.387Z,-0.82
2022-11-18T01:37:49.038Z,-0.88
2022-11-18T01:41:51.279Z,-0.85
2022-11-18T01:45:56.087Z,-0.78
2022-11-18T01:49:59.533Z,-0.84
2022-11-18T01:54:12.952Z,-0.68
2022-11-18T01:58:23.895Z,-0.71
2022-11-18T02:02:27.131Z,-0.63
2022-11-18T02:06:29.482Z,-0.67
2022-11-18T02:10:31.380Z,-0.74
2022-11-18T02:14:38.142Z,-0.70
2022-11-18T02:18:54.292Z,-0.73
2022-11-18T02:23:21.983Z,-0.88
2022-11-18T02:27:29.858Z,-0.76
2022-11-18T02:31:34.860Z,-0.80
2022-11-18T02:36:15.700Z,-0.84
2022-11-18T02:40:26.407Z,-0.76
2022-11-18T02:44:29.778Z,-0.87
2022-11-18T02:48:35.351Z,-1.05
2022-11-18T02:52:40.466Z,-0.96
2022-11-18T02:56:44.586Z,-0.84
2022-11-18T03:00:54.366Z,-0.81
2022-11-18T03:04:58.554Z,-0.80
2022-11-18T03:09:03.080Z,-0.88
2022-11-18T03:13:14.255Z,-0.93
2022-11-18T03:17:30.379Z,-0.83
2022-11-18T03:21:45.590Z,-0.95
2022-11-18T03:25:59.261Z,-0.89
2022-11-18T03:30:07.102Z,-0.99
2022-11-18T03:34:21.322Z,-1.00
2022-11-18T03:38:29.804Z,-1.10
2022-11-18T03:42:52.740Z,-1.09
2022-11-18T03:47:05.681Z,-0.92
2022-11-18T03:51:11.630Z,-1.08
2022-11-18T03:55:19.038Z,-1.14
2022-11-18T03:59:27.527Z,-1.21
2022-11-18T04:03:29.538Z,-1.11
2022-11-18T04:07:40.429Z,-1.25
2022-11-18T04:12:02.669Z,-1.20
2022-11-18T04:16:07.693Z,-1.14
2022-11-18T04:20:17.165Z,-1.38
2022-11-18T04:24:18.836Z,-1.41
2022-11-18T04:28:20.945Z,-1.36
2022-11-18T04:32:22.571Z,-1.41
2022-11-18T04:36:24.507Z,-1.46
2022-11-18T04:40:26.200Z,-1.47
2022-11-18T04:44:30.354Z,-1.50
2022-11-18T04:48:32.089Z,-1.51
2022-11-18T04:52:34.133Z,-1.59
2022-11-18T04:56:35.851Z,-1.58
2022-11-18T05:00:37.709Z,-1.57
2022-11-18T05:04:39.543Z,-1.67
2022-11-18T05:08:41.479Z,-1.51
2022-11-18T05:12:48.923Z,-1.67
2022-11-18T05:16:50.980Z,-1.60
2022-11-18T05:20:52.667Z,-1.68
2022-11-18T05:24:54.613Z,-1.66
2022-11-18T05:28:56.367Z,-1.65
2022-11-18T05:32:58.295Z,-1.72
2022-11-18T05:36:59.995Z,-1.70
2022-11-18T05:41:03.105Z,-1.63
2022-11-18T05:45:05.374Z,-1.69
2022-11-18T05:49:07.748Z,-1.61
2022-11-18T05:53:09.544Z,-1.71
2022-11-18T05:57:11.411Z,-1.72
2022-11-18T06:01:16.633Z,-1.67
2022-11-18T06:05:20.249Z,-1.72
2022-11-18T06:09:25.011Z,-1.74
2022-11-18T06:13:31.150Z,-1.70
2022-11-18T06:17:50.851Z,-1.69
2022-11-18T06:21:53.589Z,-1.71
2022-11-18T06:25:55.392Z,-1.81
2022-11-18T06:29:57.319Z,-1.71
2022-11-18T06:33:58.878Z,-1.77
2022-11-18T06:38:00.785Z,-1.82
2022-11-18T06:42:02.468Z,-1.86
2022-11-18T06:46:24.483Z,-1.80
2022-11-18T06:50:26.486Z,-1.79
2022-11-18T06:54:28.576Z,-1.78
2022-11-18T06:58:30.239Z,-1.64
2022-11-18T07:02:32.498Z,-1.58
2022-11-18T07:06:36.040Z,-1.71
2022-11-18T07:10:37.983Z,-1.50
2022-11-18T07:14:39.648Z,-1.62
2022-11-18T07:18:43.214Z,-1.54
2022-11-18T07:22:44.921Z,-1.56
2022-11-18T07:26:47.014Z,-1.41
2022-11-18T07:30:48.861Z,-1.45
2022-11-18T07:34:50.770Z,-1.38
2022-11-18T07:38:53.375Z,-1.30
2022-11-18T07:42:55.360Z,-1.27
2022-11-18T07:46:57.871Z,-1.19
2022-11-18T07:51:00.936Z,-1.22
2022-11-18T07:55:02.671Z,-1.28
2022-11-18T07:59:05.327Z,-1.24
2022-11-18T08:03:06.984Z,-1.06
2022-11-18T08:07:10.024Z,-1.17
2022-11-18T08:11:22.369Z,-1.04
2022-11-18T08:15:25.484Z,-1.05
2022-11-18T08:19:27.197Z,-0.99
2022-11-18T08:23:33.079Z,-0.97
2022-11-18T08:27:35.852Z,-0.99
2022-11-18T08:31:37.933Z,-0.94
2022-11-18T08:35:39.687Z,-0.84
2022-11-18T08:39:41.670Z,-0.81
2022-11-18T08:43:43.860Z,-0.75
2022-11-18T08:47:45.807Z,-0.92
2022-11-18T08:51:47.480Z,-0.97
2022-11-18T08:55:57.330Z,-0.98
2022-11-18T08:59:59.190Z,-0.87
2022-11-18T09:04:01.119Z,-0.95
2022-11-18T09:08:03.270Z,-0.96
2022-11-18T09:12:05.466Z,-0.97
2022-11-18T09:16:08.684Z,-0.98
2022-11-18T09:20:10.698Z,-0.94
2022-11-18T09:24:12.655Z,-1.00
2022-11-18T09:28:14.243Z,-1.13
2022-11-18T09:32:16.365Z,-1.13
2022-11-18T09:36:21.252Z,-1.07
2022-11-18T09:40:23.221Z,-1.00
2022-11-18T09:44:33.726Z,-1.00
2022-11-18T09:48:55.317Z,-0.78
2022-11-18T09:53:18.925Z,-0.69
2022-11-18T09:57:24.381Z,-0.69
2022-11-18T10:01:27.912Z,-0.56
2022-11-18T10:05:48.500Z,-0.47
2022-11-18T10:09:54.432Z,-0.55
2022-11-18T10:14:25.858Z,-0.53
2022-11-18T10:18:59.286Z,-0.31
2022-11-18T10:23:16.776Z,-0.16
2022-11-18T10:27:19.204Z,-0.18
2022-11-18T10:31:21.146Z,-0.16
2022-11-18T10:35:29.687Z,-0.27
2022-11-18T10:39:31.913Z,-0.56
2022-11-18T10:43:54.401Z,-0.30
2022-11-18T10:48:07.244Z,-0.50
2022-11-18T10:52:14.189Z,-0.59
2022-11-18T10:56:16.660Z,-0.63
2022-11-18T11:00:42.287Z,-0.53
2022-11-18T11:04:48.873Z,-0.41
2022-11-18T11:08:57.389Z,-0.29
2022-11-18T11:13:04.613Z,-0.10
2022-11-18T11:17:12.184Z,-0.17
2022-11-18T11:21:22.937Z,-0.26
2022-11-18T11:30:23.456Z,-0.40
2022-11-18T11:34:58.516Z,-0.25
2022-11-18T11:39:33.487Z,-0.39
2022-11-18T11:43:45.533Z,-0.49
2022-11-18T11:48:21.914Z,-0.45
2022-11-18T11:52:54.920Z,-0.52
2022-11-18T11:57:22.642Z,-0.46
2022-11-18T12:01:57.541Z,-0.20
2022-11-18T12:05:59.550Z,-0.22
2022-11-18T12:10:32.325Z,-0.07
2022-11-18T12:14:50.797Z,-0.25
2022-11-18T12:19:15.500Z,-0.16
2022-11-18T12:23:27.704Z,-0.35
2022-11-18T12:27:30.383Z,-0.45
2022-11-18T12:31:34.536Z,-0.42
2022-11-18T12:35:36.796Z,-0.32
2022-11-18T12:39:41.595Z,-0.34
2022-11-18T12:43:49.485Z,-0.32
2022-11-18T12:47:51.326Z,-0.38
2022-11-18T12:51:54.715Z,-0.39
2022-11-18T12:55:57.943Z,-0.58
2022-11-18T13:00:24.271Z,-0.47
2022-11-18T13:04:26.313Z,-0.57
2022-11-18T13:08:29.104Z,-0.55
2022-11-18T13:12:32.405Z,-0.56
2022-11-18T13:16:52.695Z,-0.62
2022-11-18T13:21:19.723Z,-0.62
2022-11-18T13:25:26.346Z,-0.56
2022-11-18T13:29:53.916Z,-0.47
2022-11-18T13:34:01.151Z,-0.64
2022-11-18T13:38:03.750Z,-0.66
2022-11-18T13:42:29.649Z,-0.66
2022-11-18T13:46:31.610Z,-0.64
2022-11-18T13:50:52.564Z,-0.69
2022-11-18T13:54:56.136Z,-0.73
2022-11-18T13:59:18.099Z,-0.82
2022-11-18T14:03:36.117Z,-0.84
2022-11-18T14:07:38.677Z,-0.91
2022-11-18T14:11:59.048Z,-0.87
2022-11-18T14:16:23.688Z,-0.98
2022-11-18T14:20:28.137Z,-0.97
2022-11-18T14:24:29.854Z,-0.87
2022-11-18T14:28:37.236Z,-0.92
2022-11-18T14:32:39.158Z,-0.84
2022-11-18T14:36:41.271Z,-0.97
2022-11-18T14:40:42.913Z,-1.08
2022-11-18T14:44:44.822Z,-1.07
2022-11-18T14:48:46.820Z,-1.05
2022-11-18T14:52:48.713Z,-1.06
2022-11-18T14:56:51.238Z,-1.10
2022-11-18T15:00:53.744Z,-1.18
2022-11-18T15:04:56.158Z,-1.16
2022-11-18T15:08:58.059Z,-1.21
2022-11-18T15:13:00.603Z,-1.28
2022-11-18T15:17:03.415Z,-1.14
2022-11-18T15:21:05.174Z,-1.23
2022-11-18T15:25:08.545Z,-1.33
2022-11-18T15:29:21.826Z,-1.16
2022-11-18T15:33:23.866Z,-1.28
2022-11-18T15:37:25.653Z,-1.41
2022-11-18T15:41:29.612Z,-1.51
2022-11-18T15:45:31.233Z,-1.58
2022-11-18T15:49:33.309Z,-1.69
2022-11-18T15:53:35.101Z,-1.70
2022-11-18T15:57:37.020Z,-1.71
2022-11-18T16:01:41.298Z,-1.64
2022-11-18T16:05:43.260Z,-1.60
2022-11-18T16:10:03.490Z,-1.59
2022-11-18T16:14:07.739Z,-1.66
2022-11-18T16:18:10.718Z,-1.60
2022-11-18T16:22:12.638Z,-1.62
2022-11-18T16:26:17.336Z,-1.69
2022-11-18T16:30:38.520Z,-1.79
2022-11-18T16:34:40.678Z,-1.82
2022-11-18T16:38:43.163Z,-1.79
2022-11-18T16:42:48.552Z,-1.78
2022-11-18T16:46:53.095Z,-1.83
2022-11-18T16:51:21.791Z,-1.89
2022-11-18T16:55:23.812Z,-1.92
2022-11-18T16:59:28.314Z,-1.89
2022-11-18T17:03:30.440Z,-1.93
2022-11-18T17:07:38.065Z,-1.96
2022-11-18T17:11:40.839Z,-1.95
2022-11-18T17:15:42.682Z,-2.05
2022-11-18T17:19:44.590Z,-1.89
2022-11-18T17:23:47.588Z,-1.84
2022-11-18T17:27:49.828Z,-2.03
2022-11-18T17:31:51.598Z,-1.91
2022-11-18T17:36:01.453Z,-1.90
2022-11-18T17:40:03.526Z,-1.95
2022-11-18T17:44:07.164Z,-2.02
2022-11-18T17:48:08.902Z,-2.10
2022-11-18T17:52:10.978Z,-2.09
2022-11-18T17:56:12.765Z,-2.20
2022-11-18T18:00:15.099Z,-2.23
2022-11-18T18:04:21.362Z,-2.12
2022-11-18T18:08:23.676Z,-2.19
2022-11-18T18:12:45.001Z,-2.06
2022-11-18T18:16:49.862Z,-2.13
2022-11-18T18:20:51.505Z,-2.13
2022-11-18T18:24:53.580Z,-2.17
2022-11-18T18:28:55.580Z,-2.15
2022-11-18T18:32:57.627Z,-2.25
2022-11-18T18:36:59.320Z,-2.29
2022-11-18T18:41:21.871Z,-2.11
2022-11-18T18:45:42.148Z,-2.17
2022-11-18T18:49:44.240Z,-2.18
2022-11-18T18:53:46.844Z,-2.26
2022-11-18T18:57:48.979Z,-2.11
2022-11-18T19:01:50.713Z,-2.15
2022-11-18T19:10:14.763Z,-2.18
2022-11-18T19:14:19.075Z,-2.15
2022-11-18T19:18:23.503Z,-2.18
2022-11-18T19:22:26.313Z,-2.33
2022-11-18T19:26:28.395Z,-2.52
2022-11-18T19:30:30.682Z,-2.35
2022-11-18T19:34:32.311Z,-2.41
2022-11-18T19:38:35.727Z,-2.53
2022-11-18T19:42:37.937Z,-2.33
2022-11-18T19:46:40.060Z,-2.39
2022-11-18T19:50:41.766Z,-2.54
2022-11-18T19:54:43.978Z,-2.59
2022-11-18T19:58:47.147Z,-2.43
2022-11-18T20:02:49.108Z,-2.43
2022-11-18T20:06:51.102Z,-2.45
2022-11-18T20:10:53.559Z,-2.46
2022-11-18T20:14:55.237Z,-2.47
2022-11-18T20:18:59.486Z,-2.61
2022-11-18T20:23:01.635Z,-2.50
2022-11-18T20:27:04.410Z,-2.50
2022-11-18T20:31:08.243Z,-2.46
2022-11-18T20:35:10.295Z,-2.47
2022-11-18T20:39:15.635Z,-2.61
2022-11-18T20:43:17.789Z,-2.60
2022-11-18T20:47:19.462Z,-2.69
2022-11-18T20:51:26.971Z,-2.65
2022-11-18T20:55:28.631Z,-2.63
2022-11-18T20:59:30.496Z,-2.65
2022-11-18T21:03:32.447Z,-2.65
2022-11-18T21:07:34.823Z,-2.70
2022-11-18T21:11:36.739Z,-2.68
2022-11-18T21:15:38.737Z,-2.71
2022-11-18T21:19:44.580Z,-2.64
2022-11-18T21:23:49.307Z,-2.65
2022-11-18T21:27:51.183Z,-2.76
2022-11-18T21:31:53.669Z,-2.75
2022-11-18T21:35:58.507Z,-2.74
2022-11-18T21:40:00.511Z,-2.88
2022-11-18T21:44:05.976Z,-2.83
2022-11-18T21:48:08.624Z,-2.80
2022-11-18T21:52:10.419Z,-2.73
2022-11-18T21:56:14.939Z,-2.80
2022-11-18T22:00:17.329Z,-2.94
2022-11-18T22:04:37.942Z,-2.93
2022-11-18T22:08:41.011Z,-2.89
2022-11-18T22:12:43.037Z,-2.99
2022-11-18T22:16:44.688Z,-3.05
2022-11-18T22:20:46.837Z,-3.05
2022-11-18T22:24:48.525Z,-3.01
2022-11-18T22:28:55.630Z,-2.91
2022-11-18T22:32:57.456Z,-2.92
2022-11-18T22:36:59.522Z,-2.90
2022-11-18T22:41:30.681Z,-2.93
2022-11-18T22:45:33.668Z,-2.91
2022-11-18T22:49:35.392Z,-2.94
2022-11-18T22:53:37.513Z,-2.81
2022-11-18T22:57:39.399Z,-2.90
2022-11-18T23:01:41.680Z,-2.90
2022-11-18T23:05:46.383Z,-2.89
2022-11-18T23:09:48.496Z,-2.93
2022-11-18T23:13:56.381Z,-2.94
2022-11-18T23:17:58.456Z,-2.85
2022-11-18T23:22:00.128Z,-2.94
2022-11-18T23:26:21.247Z,-2.96
2022-11-18T23:30:23.027Z,-2.90
2022-11-18T23:34:25.818Z,-2.88
2022-11-18T23:38:28.905Z,-3.13
2022-11-18T23:42:30.874Z,-3.07
2022-11-18T23:46:33.350Z,-3.08
2022-11-18T23:50:39.325Z,-3.11
2022-11-18T23:54:41.332Z,-3.00
2022-11-18T23:58:46.593Z,-2.99
